createdAt,value
2022-09-18T00:02:18.776Z,99267.44
2022-09-18T00:04:45.315Z,99285.72
2022-09-18T00:07:11.750Z,99275.31
2022-09-18T00:09:38.511Z,99270.09
2022-09-18T00:12:05.093Z,99267.91
2022-09-18T00:14:31.601Z,99272.97
2022-09-18T00:16:58.076Z,99271.94
2022-09-18T00:19:24.603Z,99276.13
2022-09-18T00:21:51.326Z,99284.50
2022-09-18T00:24:18.572Z,99275.94
2022-09-18T00:26:45.831Z,99281.31
2022-09-18T00:29:13.091Z,99284.66
2022-09-18T00:31:39.735Z,99282.16
2022-09-18T00:34:08.563Z,99279.31
2022-09-18T00:36:35.531Z,99281.31
2022-09-18T00:39:03.105Z,99294.59
2022-09-18T00:41:33.366Z,99288.06
2022-09-18T00:44:18.670Z,99296.47
2022-09-18T00:46:46.076Z,99297.84
2022-09-18T00:49:18.449Z,99307.88
2022-09-18T00:51:46.108Z,99306.56
2022-09-18T00:54:19.575Z,99322.00
2022-09-18T00:56:46.280Z,99310.56
2022-09-18T00:59:14.111Z,99315.41
2022-09-18T01:01:40.618Z,99321.31
2022-09-18T01:04:14.063Z,99325.00
2022-09-18T01:06:49.692Z,99319.31
2022-09-18T01:09:28.666Z,99318.13
2022-09-18T01:12:10.770Z,99329.03
2022-09-18T01:14:43.559Z,99330.06
2022-09-18T01:17:16.194Z,99333.75
2022-09-18T01:19:42.632Z,99320.00
2022-09-18T01:22:18.399Z,99319.16
2022-09-18T01:24:52.157Z,99333.09
2022-09-18T01:27:24.196Z,99329.41
2022-09-18T01:29:55.433Z,99329.75
2022-09-18T01:32:24.651Z,99337.47
2022-09-18T01:35:09.811Z,99344.50
2022-09-18T01:37:51.079Z,99340.47
2022-09-18T01:40:24.757Z,99341.81
2022-09-18T01:42:53.174Z,99343.53
2022-09-18T01:45:23.055Z,99350.59
2022-09-18T01:47:56.185Z,99350.28
2022-09-18T01:50:24.623Z,99348.25
2022-09-18T01:52:55.817Z,99355.63
2022-09-18T01:55:25.670Z,99360.69
2022-09-18T01:58:01.716Z,99365.75
2022-09-18T02:00:30.429Z,99361.00
2022-09-18T02:03:19.991Z,99373.41
2022-09-18T02:05:48.581Z,99374.47
2022-09-18T02:08:23.421Z,99379.84
2022-09-18T02:10:58.254Z,99389.22
2022-09-18T02:13:27.344Z,99385.53
2022-09-18T02:15:57.750Z,99384.19
2022-09-18T02:18:27.501Z,99386.88
2022-09-18T02:20:54.842Z,99388.56
2022-09-18T02:23:21.375Z,99391.09
2022-09-18T02:25:54.641Z,99397.00
2022-09-18T02:28:23.412Z,99395.31
2022-09-18T02:30:49.927Z,99402.69
2022-09-18T02:33:26.549Z,99411.97
2022-09-18T02:36:04.868Z,99409.75
2022-09-18T02:38:36.535Z,99420.19
2022-09-18T02:41:07.735Z,99423.19
2022-09-18T02:43:53.079Z,99425.19
2022-09-18T02:46:38.133Z,99431.56
2022-09-18T02:49:14.734Z,99429.50
2022-09-18T02:51:52.907Z,99435.34
2022-09-18T02:54:22.209Z,99428.84
2022-09-18T02:56:56.114Z,99424.44
2022-09-18T02:59:25.852Z,99418.09
2022-09-18T03:01:54.054Z,99426.81
2022-09-18T03:04:22.378Z,99416.06
2022-09-18T03:06:48.832Z,99426.50
2022-09-18T03:09:16.250Z,99435.59
2022-09-18T03:11:42.685Z,99414.41
2022-09-18T03:14:09.176Z,99434.88
2022-09-18T03:16:35.689Z,99438.94
2022-09-18T03:19:02.242Z,99442.47
2022-09-18T03:21:29.801Z,99444.00
2022-09-18T03:23:56.486Z,99456.88
2022-09-18T03:26:23.020Z,99457.75
2022-09-18T03:28:49.571Z,99459.06
2022-09-18T03:31:16.207Z,99456.53
2022-09-18T03:33:42.735Z,99456.00
2022-09-18T03:36:09.129Z,99459.38
2022-09-18T03:38:37.817Z,99467.81
2022-09-18T03:41:04.978Z,99465.28
2022-09-18T03:43:31.432Z,99478.56
2022-09-18T03:45:57.943Z,99472.84
2022-09-18T03:48:24.501Z,99485.97
2022-09-18T03:50:50.972Z,99490.66
2022-09-18T03:53:17.505Z,99498.06
2022-09-18T03:55:43.941Z,99500.41
2022-09-18T03:58:10.371Z,99499.94
2022-09-18T04:00:37.077Z,99503.78
2022-09-18T04:03:03.887Z,99507.63
2022-09-18T04:05:30.401Z,99507.78
2022-09-18T04:07:56.843Z,99509.09
2022-09-18T04:10:23.309Z,99514.16
2022-09-18T04:12:49.802Z,99512.47
2022-09-18T04:15:16.599Z,99519.53
2022-09-18T04:17:44.623Z,99507.94
2022-09-18T04:20:11.143Z,99513.84
2022-09-18T04:22:37.649Z,99510.47
2022-09-18T04:25:04.997Z,99510.47
2022-09-18T04:27:31.571Z,99526.25
2022-09-18T04:29:58.013Z,99531.63
2022-09-18T04:32:24.533Z,99544.09
2022-09-18T04:34:50.963Z,99528.47
2022-09-18T04:37:17.423Z,99537.72
2022-09-18T04:39:43.884Z,99548.63
2022-09-18T04:42:10.348Z,99545.78
2022-09-18T04:44:36.753Z,99558.50
2022-09-18T04:47:03.375Z,99556.84
2022-09-18T04:49:29.844Z,99563.56
2022-09-18T04:51:56.315Z,99573.47
2022-09-18T04:54:22.817Z,99570.47
2022-09-18T04:56:49.255Z,99578.75
2022-09-18T04:59:15.731Z,99584.53
2022-09-18T05:01:42.258Z,99578.75
2022-09-18T05:04:08.783Z,99579.81
2022-09-18T05:06:35.341Z,99585.66
2022-09-18T05:09:01.864Z,99583.63
2022-09-18T05:11:28.551Z,99603.44
2022-09-18T05:13:56.920Z,99589.00
2022-09-18T05:16:26.453Z,99599.75
2022-09-18T05:18:53.125Z,99592.06
2022-09-18T05:21:19.614Z,99594.78
2022-09-18T05:23:47.007Z,99596.81
2022-09-18T05:26:13.887Z,99598.50
2022-09-18T05:28:40.947Z,99595.84
2022-09-18T05:31:07.497Z,99618.75
2022-09-18T05:33:34.168Z,99603.25
2022-09-18T05:36:00.665Z,99615.75
2022-09-18T05:38:27.244Z,99614.63
2022-09-18T05:40:53.912Z,99620.84
2022-09-18T05:43:20.426Z,99621.44
2022-09-18T05:45:46.860Z,99626.81
2022-09-18T05:48:14.507Z,99631.00
2022-09-18T05:50:42.232Z,99632.06
2022-09-18T05:53:08.643Z,99637.13
2022-09-18T05:55:35.109Z,99639.22
2022-09-18T05:58:02.680Z,99634.84
2022-09-18T06:00:30.371Z,99633.81
2022-09-18T06:02:57.682Z,99633.38
2022-09-18T06:05:24.613Z,99637.59
2022-09-18T06:07:51.191Z,99647.97
2022-09-18T06:10:18.620Z,99651.09
2022-09-18T06:12:45.300Z,99641.03
2022-09-18T06:15:12.700Z,99642.03
2022-09-18T06:17:39.578Z,99647.16
2022-09-18T06:20:07.691Z,99648.50
2022-09-18T06:22:34.568Z,99656.56
2022-09-18T06:25:01.031Z,99649.22
2022-09-18T06:27:27.429Z,99645.19
2022-09-18T06:29:54.223Z,99656.63
2022-09-18T06:32:20.685Z,99652.94
2022-09-18T06:34:47.558Z,99642.50
2022-09-18T06:37:14.523Z,99656.66
2022-09-18T06:39:43.778Z,99664.13
2022-09-18T06:42:10.298Z,99661.38
2022-09-18T06:44:37.391Z,99662.06
2022-09-18T06:47:03.934Z,99676.41
2022-09-18T06:49:30.435Z,99668.63
2022-09-18T06:51:56.895Z,99673.81
2022-09-18T06:54:23.430Z,99677.78
2022-09-18T06:56:49.852Z,99691.69
2022-09-18T06:59:16.304Z,99691.34
2022-09-18T07:01:42.817Z,99689.97
2022-09-18T07:04:09.274Z,99707.16
2022-09-18T07:06:35.711Z,99708.50
2022-09-18T07:09:02.218Z,99714.94
2022-09-18T07:11:29.448Z,99711.59
2022-09-18T07:13:55.996Z,99714.22
2022-09-18T07:16:22.742Z,99717.53
2022-09-18T07:18:49.330Z,99721.47
2022-09-18T07:21:15.828Z,99708.94
2022-09-18T07:23:42.375Z,99713.25
2022-09-18T07:26:09.175Z,99715.59
2022-09-18T07:28:35.601Z,99729.78
2022-09-18T07:31:02.905Z,99727.47
2022-09-18T07:33:29.383Z,99722.94
2022-09-18T07:35:59.546Z,99726.75
2022-09-18T07:38:25.988Z,99730.16
2022-09-18T07:40:52.752Z,99745.75
2022-09-18T07:43:19.241Z,99738.03
2022-09-18T07:45:45.666Z,99742.47
2022-09-18T07:48:12.532Z,99740.44
2022-09-18T07:50:39.778Z,99736.22
2022-09-18T07:53:07.464Z,99739.94
2022-09-18T07:55:35.120Z,99756.47
2022-09-18T07:58:02.878Z,99756.28
2022-09-18T08:00:31.672Z,99745.72
2022-09-18T08:03:02.409Z,99752.84
2022-09-18T08:05:29.291Z,99755.75
2022-09-18T08:07:55.698Z,99757.97
2022-09-18T08:10:22.219Z,99756.88
2022-09-18T08:12:48.696Z,99756.50
2022-09-18T08:15:15.294Z,99753.81
2022-09-18T08:17:45.871Z,99755.75
2022-09-18T08:20:12.556Z,99763.38
2022-09-18T08:22:39.508Z,99758.72
2022-09-18T08:25:06.227Z,99768.47
2022-09-18T08:27:35.795Z,99759.00
2022-09-18T08:30:02.324Z,99763.22
2022-09-18T08:32:28.802Z,99763.28
2022-09-18T08:34:55.785Z,99753.06
2022-09-18T08:37:22.231Z,99763.16
2022-09-18T08:39:48.686Z,99759.16
2022-09-18T08:42:21.673Z,99754.72
2022-09-18T08:45:08.074Z,99765.47
2022-09-18T08:47:39.831Z,99763.53
2022-09-18T08:50:14.686Z,99757.59
2022-09-18T08:52:44.343Z,99758.38
2022-09-18T08:55:24.987Z,99764.53
2022-09-18T08:57:56.573Z,99762.56
2022-09-18T09:00:25.119Z,99764.47
2022-09-18T09:02:53.531Z,99767.13
2022-09-18T09:05:26.262Z,99759.16
2022-09-18T09:08:16.784Z,99769.03
2022-09-18T09:11:03.493Z,99762.13
2022-09-18T09:13:35.809Z,99768.78
2022-09-18T09:16:08.266Z,99762.44
2022-09-18T09:18:47.519Z,99773.06
2022-09-18T09:21:20.117Z,99764.03
2022-09-18T09:23:46.517Z,99768.03
2022-09-18T09:26:18.744Z,99761.91
2022-09-18T09:28:59.998Z,99781.28
2022-09-18T09:31:29.449Z,99764.97
2022-09-18T09:34:01.199Z,99763.28
2022-09-18T09:36:29.698Z,99766.63
2022-09-18T09:38:59.129Z,99756.50
2022-09-18T09:41:34.788Z,99760.56
2022-09-18T09:44:24.506Z,99760.56
2022-09-18T09:46:55.255Z,99761.59
2022-09-18T09:49:27.611Z,99764.53
2022-09-18T09:52:08.212Z,99768.56
2022-09-18T09:54:35.562Z,99770.56
2022-09-18T09:57:07.894Z,99771.06
2022-09-18T09:59:55.932Z,99766.63
2022-09-18T10:02:48.959Z,99768.66
2022-09-18T10:05:29.422Z,99774.44
2022-09-18T10:08:00.478Z,99776.34
2022-09-18T10:10:34.160Z,99782.47
2022-09-18T10:13:03.422Z,99769.38
2022-09-18T10:15:38.787Z,99770.72
2022-09-18T10:18:07.991Z,99772.16
2022-09-18T10:20:35.417Z,99753.28
2022-09-18T10:23:06.768Z,99761.16
2022-09-18T10:25:40.909Z,99763.38
2022-09-18T10:28:11.762Z,99757.94
2022-09-18T10:30:52.164Z,99772.81
2022-09-18T10:33:32.746Z,99772.53
2022-09-18T10:36:21.346Z,99760.66
2022-09-18T10:38:48.189Z,99771.38
2022-09-18T10:41:22.159Z,99768.00
2022-09-18T10:44:01.188Z,99769.66
2022-09-18T10:46:30.353Z,99760.66
2022-09-18T10:48:58.609Z,99764.22
2022-09-18T10:51:29.398Z,99765.06
2022-09-18T10:54:14.695Z,99769.28
2022-09-18T10:56:41.353Z,99762.97
2022-09-18T10:59:16.679Z,99760.13
2022-09-18T11:01:44.913Z,99754.75
2022-09-18T11:04:15.681Z,99764.00
2022-09-18T11:06:44.217Z,99777.66
2022-09-18T11:09:11.191Z,99756.06
2022-09-18T11:11:42.497Z,99750.94
2022-09-18T11:14:20.043Z,99762.47
2022-09-18T11:16:48.692Z,99736.91
2022-09-18T11:19:23.692Z,99750.66
2022-09-18T11:21:56.842Z,99738.28
2022-09-18T11:24:23.314Z,99737.97
2022-09-18T11:26:52.317Z,99744.00
2022-09-18T11:29:24.939Z,99736.09
2022-09-18T11:31:57.713Z,99731.88
2022-09-18T11:34:25.809Z,99735.13
2022-09-18T11:36:54.781Z,99739.84
2022-09-18T11:39:24.631Z,99724.94
2022-09-18T11:41:51.789Z,99743.31
2022-09-18T11:44:22.295Z,99747.03
2022-09-18T11:46:52.213Z,99744.50
2022-09-18T11:49:38.899Z,99733.59
2022-09-18T11:52:14.570Z,99722.00
2022-09-18T11:54:54.921Z,99730.16
2022-09-18T11:57:26.594Z,99724.00
2022-09-18T12:00:06.912Z,99727.53
2022-09-18T12:02:44.505Z,99726.63
2022-09-18T12:05:25.670Z,99741.53
2022-09-18T12:07:59.830Z,99731.84
2022-09-18T12:10:44.700Z,99730.13
2022-09-18T12:13:11.185Z,99723.41
2022-09-18T12:15:40.917Z,99727.94
2022-09-18T12:18:20.677Z,99724.84
2022-09-18T12:20:47.081Z,99721.75
2022-09-18T12:23:15.030Z,99728.28
2022-09-18T12:25:48.664Z,99712.31
2022-09-18T12:28:24.010Z,99723.31
2022-09-18T12:30:59.142Z,99729.78
2022-09-18T12:33:34.207Z,99719.91
2022-09-18T12:36:19.345Z,99714.34
2022-09-18T12:38:58.366Z,99719.66
2022-09-18T12:41:24.863Z,99722.56
2022-09-18T12:44:10.411Z,99729.53
2022-09-18T12:46:43.325Z,99717.16
2022-09-18T12:49:18.850Z,99720.22
2022-09-18T12:51:53.574Z,99723.72
2022-09-18T12:54:27.421Z,99722.38
2022-09-18T12:57:02.645Z,99710.97
2022-09-18T12:59:48.134Z,99715.38
2022-09-18T13:02:22.812Z,99705.66
2022-09-18T13:04:58.325Z,99712.69
2022-09-18T13:07:37.700Z,99729.19
2022-09-18T13:10:04.149Z,99730.81
2022-09-18T13:12:33.880Z,99712.19
2022-09-18T13:15:04.691Z,99714.16
2022-09-18T13:17:36.596Z,99742.97
2022-09-18T13:20:12.972Z,99711.88
2022-09-18T13:22:40.317Z,99712.63
2022-09-18T13:25:15.155Z,99711.72
2022-09-18T13:27:41.782Z,99712.09
2022-09-18T13:30:15.785Z,99714.94
2022-09-18T13:32:42.698Z,99712.75
2022-09-18T13:35:22.322Z,99717.84
2022-09-18T13:37:49.521Z,99711.28
2022-09-18T13:40:27.407Z,99716.22
2022-09-18T13:42:54.192Z,99703.88
2022-09-18T13:45:22.813Z,99717.19
2022-09-18T13:48:09.490Z,99717.19
2022-09-18T13:50:36.290Z,99720.69
2022-09-18T13:53:05.019Z,99711.66
2022-09-18T13:55:36.096Z,99716.88
2022-09-18T13:58:21.995Z,99711.28
2022-09-18T14:00:48.516Z,99710.34
2022-09-18T14:03:15.453Z,99719.75
2022-09-18T14:05:42.831Z,99710.41
2022-09-18T14:08:22.330Z,99725.38
2022-09-18T14:11:11.419Z,99734.03
2022-09-18T14:13:39.882Z,99721.84
2022-09-18T14:16:23.802Z,99728.72
2022-09-18T14:18:54.468Z,99727.00
2022-09-18T14:21:31.804Z,99731.69
2022-09-18T14:24:19.855Z,99734.41
2022-09-18T14:26:47.256Z,99729.31
2022-09-18T14:29:17.247Z,99717.34
2022-09-18T14:31:49.799Z,99738.31
2022-09-18T14:34:16.282Z,99725.31
2022-09-18T14:36:46.367Z,99727.81
2022-09-18T14:39:26.545Z,99730.50
2022-09-18T14:41:55.068Z,99720.38
2022-09-18T14:44:22.956Z,99739.06
2022-09-18T14:46:54.473Z,99736.22
2022-09-18T14:49:25.219Z,99740.59
2022-09-18T14:52:04.367Z,99742.88
2022-09-18T14:54:31.347Z,99740.78
2022-09-18T14:57:00.163Z,99733.75
2022-09-18T14:59:26.871Z,99743.00
2022-09-18T15:01:53.424Z,99737.19
2022-09-18T15:04:22.293Z,99747.13
2022-09-18T15:06:56.039Z,99739.78
2022-09-18T15:09:27.488Z,99751.25
2022-09-18T15:12:03.242Z,99756.66
2022-09-18T15:14:41.568Z,99748.22
2022-09-18T15:17:37.287Z,99752.06
2022-09-18T15:20:15.947Z,99741.69
2022-09-18T15:22:42.481Z,99753.41
2022-09-18T15:25:16.245Z,99753.41
2022-09-18T15:27:44.203Z,99753.03
2022-09-18T15:30:16.399Z,99763.91
2022-09-18T15:32:46.255Z,99754.84
2022-09-18T15:35:18.188Z,99760.78
2022-09-18T15:37:49.747Z,99753.75
2022-09-18T15:40:20.923Z,99754.09
2022-09-18T15:43:10.529Z,99747.13
2022-09-18T15:45:37.134Z,99753.03
2022-09-18T15:48:22.148Z,99757.81
2022-09-18T15:50:48.676Z,99762.00
2022-09-18T15:53:17.608Z,99758.38
2022-09-18T15:55:53.808Z,99761.06
2022-09-18T15:58:46.589Z,99759.84
2022-09-18T16:01:20.943Z,99769.38
2022-09-18T16:03:47.891Z,99763.63
2022-09-18T16:06:25.656Z,99771.66
2022-09-18T16:08:53.995Z,99769.16
2022-09-18T16:11:40.559Z,99780.69
2022-09-18T16:14:25.393Z,99773.69
2022-09-18T16:16:52.847Z,99772.81
2022-09-18T16:19:19.375Z,99775.13
2022-09-18T16:21:46.060Z,99784.56
2022-09-18T16:24:22.823Z,99781.47
2022-09-18T16:26:49.236Z,99780.97
2022-09-18T16:29:20.094Z,99775.03
2022-09-18T16:31:47.113Z,99787.69
2022-09-18T16:34:24.102Z,99776.34
2022-09-18T16:36:51.449Z,99777.50
2022-09-18T16:39:19.625Z,99771.16
2022-09-18T16:41:46.426Z,99778.16
2022-09-18T16:44:13.813Z,99770.06
2022-09-18T16:46:49.269Z,99764.47
2022-09-18T16:49:20.233Z,99780.69
2022-09-18T16:51:46.686Z,99774.75
2022-09-18T16:54:13.486Z,99784.22
2022-09-18T16:56:45.053Z,99792.44
2022-09-18T16:59:11.561Z,99786.50
2022-09-18T17:01:54.195Z,99794.31
2022-09-18T17:04:26.232Z,99788.34
2022-09-18T17:06:52.993Z,99792.50
2022-09-18T17:09:19.469Z,99795.28
2022-09-18T17:11:46.696Z,99793.06
2022-09-18T17:14:13.118Z,99794.69
2022-09-18T17:16:44.458Z,99796.28
2022-09-18T17:19:11.814Z,99800.38
2022-09-18T17:21:39.032Z,99801.13
2022-09-18T17:24:05.858Z,99798.16
2022-09-18T17:26:32.314Z,99795.19
2022-09-18T17:28:58.864Z,99792.56
2022-09-18T17:31:26.542Z,99791.25
2022-09-18T17:33:53.724Z,99799.13
2022-09-18T17:36:20.477Z,99786.69
2022-09-18T17:38:47.721Z,99791.16
2022-09-18T17:41:15.251Z,99790.16
2022-09-18T17:43:42.484Z,99790.91
2022-09-18T17:46:10.812Z,99797.44
2022-09-18T17:48:37.865Z,99799.66
2022-09-18T17:51:07.950Z,99800.28
2022-09-18T17:53:34.412Z,99808.31
2022-09-18T17:56:01.106Z,99801.00
2022-09-18T17:58:27.974Z,99811.56
2022-09-18T18:00:55.070Z,99805.56
2022-09-18T18:03:22.168Z,99811.69
2022-09-18T18:05:52.714Z,99810.38
2022-09-18T18:08:19.766Z,99823.94
2022-09-18T18:10:46.737Z,99824.31
2022-09-18T18:13:13.763Z,99815.19
2022-09-18T18:15:40.221Z,99822.34
2022-09-18T18:18:07.516Z,99824.06
2022-09-18T18:20:34.063Z,99830.53
2022-09-18T18:23:00.518Z,99831.91
2022-09-18T18:25:27.306Z,99829.22
2022-09-18T18:27:56.726Z,99839.91
2022-09-18T18:30:24.201Z,99835.69
2022-09-18T18:32:52.061Z,99841.75
2022-09-18T18:35:19.645Z,99840.75
2022-09-18T18:37:46.664Z,99841.47
2022-09-18T18:40:14.844Z,99836.41
2022-09-18T18:42:41.362Z,99833.38
2022-09-18T18:45:08.264Z,99841.16
2022-09-18T18:47:34.786Z,99838.13
2022-09-18T18:50:01.291Z,99840.47
2022-09-18T18:52:28.903Z,99839.16
2022-09-18T18:54:55.558Z,99843.19
2022-09-18T18:57:22.136Z,99839.13
2022-09-18T18:59:49.060Z,99831.38
2022-09-18T19:02:15.677Z,99846.91
2022-09-18T19:04:44.861Z,99835.47
2022-09-18T19:07:11.395Z,99830.38
2022-09-18T19:09:39.930Z,99833.59
2022-09-18T19:12:06.449Z,99838.84
2022-09-18T19:14:34.327Z,99838.31
2022-09-18T19:17:01.344Z,99835.28
2022-09-18T19:19:29.137Z,99832.09
2022-09-18T19:21:59.468Z,99827.69
2022-09-18T19:24:30.051Z,99831.41
2022-09-18T19:26:57.452Z,99828.38
2022-09-18T19:29:24.423Z,99826.66
2022-09-18T19:31:52.708Z,99823.31
2022-09-18T19:34:20.576Z,99820.28
2022-09-18T19:36:50.216Z,99822.59
2022-09-18T19:39:17.666Z,99819.22
2022-09-18T19:41:56.460Z,99815.50
2022-09-18T19:44:27.093Z,99807.78
2022-09-18T19:46:54.759Z,99806.44
2022-09-18T19:49:25.039Z,99800.69
2022-09-18T19:51:51.573Z,99803.38
2022-09-18T19:54:19.450Z,99800.38
2022-09-18T19:56:47.416Z,99801.69
2022-09-18T19:59:14.476Z,99794.28
2022-09-18T20:01:41.321Z,99800.00
2022-09-18T20:04:08.516Z,99799.84
2022-09-18T20:06:37.036Z,99797.66
2022-09-18T20:09:03.814Z,99797.31
2022-09-18T20:11:30.676Z,99794.09
2022-09-18T20:13:57.157Z,99796.97
2022-09-18T20:16:23.698Z,99804.72
2022-09-18T20:18:50.243Z,99806.75
2022-09-18T20:21:17.709Z,99803.72
2022-09-18T20:23:44.478Z,99800.31
2022-09-18T20:26:12.758Z,99801.69
2022-09-18T20:28:42.755Z,99793.03
2022-09-18T20:31:10.410Z,99796.91
2022-09-18T20:33:38.030Z,99798.25
2022-09-18T20:36:05.301Z,99805.66
2022-09-18T20:38:35.528Z,99791.47
2022-09-18T20:41:07.218Z,99799.75
2022-09-18T20:43:34.120Z,99786.75
2022-09-18T20:46:02.167Z,99792.47
2022-09-18T20:48:32.378Z,99789.09
2022-09-18T20:50:59.629Z,99789.09
2022-09-18T20:53:26.271Z,99796.53
2022-09-18T20:55:52.750Z,99791.47
2022-09-18T20:58:19.507Z,99796.84
2022-09-18T21:00:46.996Z,99784.38
2022-09-18T21:03:14.355Z,99787.06
2022-09-18T21:05:43.110Z,99782.66
2022-09-18T21:08:10.766Z,99786.41
2022-09-18T21:10:46.622Z,99780.31
2022-09-18T21:13:14.472Z,99781.34
2022-09-18T21:15:48.616Z,99782.50
2022-09-18T21:18:16.722Z,99785.34
2022-09-18T21:20:43.885Z,99778.28
2022-09-18T21:23:31.846Z,99773.22
2022-09-18T21:25:59.900Z,99778.28
2022-09-18T21:28:26.978Z,99770.53
2022-09-18T21:30:53.614Z,99772.41
2022-09-18T21:33:20.174Z,99762.47
2022-09-18T21:35:55.026Z,99763.13
2022-09-18T21:38:21.620Z,99766.16
2022-09-18T21:40:48.501Z,99754.03
2022-09-18T21:43:15.704Z,99755.72
2022-09-18T21:45:42.455Z,99753.72
2022-09-18T21:48:09.197Z,99757.09
2022-09-18T21:50:40.651Z,99749.66
2022-09-18T21:53:07.322Z,99751.53
2022-09-18T21:55:37.598Z,99750.00
2022-09-18T21:58:05.666Z,99747.63
2022-09-18T22:00:32.542Z,99744.94
2022-09-18T22:02:59.559Z,99743.25
2022-09-18T22:05:29.134Z,99746.97
2022-09-18T22:07:56.604Z,99749.66
2022-09-18T22:10:25.531Z,99742.56
2022-09-18T22:12:54.298Z,99743.25
2022-09-18T22:15:20.849Z,99746.63
2022-09-18T22:17:48.854Z,99739.53
2022-09-18T22:20:17.683Z,99739.22
2022-09-18T22:22:44.650Z,99734.16
2022-09-18T22:25:13.799Z,99736.19
2022-09-18T22:27:41.739Z,99737.88
2022-09-18T22:30:11.400Z,99732.47
2022-09-18T22:32:37.845Z,99729.94
2022-09-18T22:35:05.559Z,99734.47
2022-09-18T22:37:33.509Z,99732.81
2022-09-18T22:40:00.145Z,99735.50
2022-09-18T22:42:31.431Z,99731.13
2022-09-18T22:44:57.851Z,99732.16
2022-09-18T22:47:25.903Z,99727.75
2022-09-18T22:49:53.392Z,99727.75
2022-09-18T22:52:21.232Z,99719.84
2022-09-18T22:54:48.791Z,99719.00
2022-09-18T22:57:16.438Z,99721.03
2022-09-18T22:59:44.251Z,99713.94
2022-09-18T23:02:12.006Z,99718.66
2022-09-18T23:04:40.405Z,99719.34
2022-09-18T23:07:08.141Z,99717.63
2022-09-18T23:09:36.145Z,99712.59
2022-09-18T23:12:03.972Z,99703.81
2022-09-18T23:14:31.530Z,99705.19
2022-09-18T23:16:59.799Z,99697.44
2022-09-18T23:19:30.489Z,99705.69
2022-09-18T23:21:57.686Z,99705.16
2022-09-18T23:24:25.548Z,99702.13
2022-09-18T23:26:52.978Z,99707.16
2022-09-18T23:29:21.088Z,99702.78
2022-09-18T23:31:50.547Z,99697.38
2022-09-18T23:34:19.612Z,99693.00
2022-09-18T23:36:50.580Z,99694.03
2022-09-18T23:39:24.835Z,99698.03
2022-09-18T23:41:52.797Z,99692.66
2022-09-18T23:44:21.572Z,99690.63
2022-09-18T23:46:48.196Z,99683.75
2022-09-18T23:49:17.056Z,99693.38
2022-09-18T23:51:46.363Z,99683.25
2022-09-18T23:54:17.891Z,99686.94
2022-09-18T23:56:45.937Z,99680.88
2022-09-18T23:59:16.472Z,99682.59
